createdAt,value
2023-05-20T00:01:27.933Z,40.06
2023-05-20T00:03:55.135Z,40.45
2023-05-20T00:06:22.258Z,40.17
2023-05-20T00:08:49.332Z,40.47
2023-05-20T00:11:16.404Z,40.28
2023-05-20T00:13:43.381Z,40.49
2023-05-20T00:16:10.472Z,40.33
2023-05-20T00:18:37.500Z,40.68
2023-05-20T00:21:04.578Z,40.70
2023-05-20T00:23:31.570Z,40.67
2023-05-20T00:26:00.576Z,40.74
2023-05-20T00:28:27.921Z,40.99
2023-05-20T00:30:55.156Z,41.38
2023-05-20T00:33:22.209Z,41.09
2023-05-20T00:35:49.381Z,41.18
2023-05-20T00:38:16.353Z,41.21
2023-05-20T00:40:43.350Z,40.89
2023-05-20T00:43:10.707Z,42.25
2023-05-20T00:45:38.737Z,41.28
2023-05-20T00:48:06.680Z,41.82
2023-05-20T00:50:34.131Z,41.50
2023-05-20T00:53:01.523Z,41.41
2023-05-20T00:55:28.626Z,41.94
2023-05-20T00:57:55.712Z,41.91
2023-05-20T01:00:23.309Z,42.78
2023-05-20T01:02:50.843Z,42.16
2023-05-20T01:05:18.314Z,42.28
2023-05-20T01:07:45.371Z,42.42
2023-05-20T01:10:12.720Z,42.23
2023-05-20T01:12:48.499Z,41.96
2023-05-20T01:15:17.277Z,42.07
2023-05-20T01:17:51.092Z,42.40
2023-05-20T01:20:18.953Z,43.21
2023-05-20T01:22:56.944Z,41.22
2023-05-20T01:25:27.685Z,42.82
2023-05-20T01:28:00.648Z,42.28
2023-05-20T01:30:35.621Z,42.15
2023-05-20T01:33:08.241Z,42.14
2023-05-20T01:35:36.606Z,42.36
2023-05-20T01:38:06.107Z,42.50
2023-05-20T01:40:34.173Z,42.50
2023-05-20T01:43:03.354Z,43.52
2023-05-20T01:45:31.255Z,43.17
2023-05-20T01:47:59.913Z,43.29
2023-05-20T01:50:27.241Z,43.06
2023-05-20T01:52:54.287Z,43.95
2023-05-20T01:55:21.488Z,43.78
2023-05-20T01:57:48.598Z,43.47
2023-05-20T02:00:15.764Z,43.73
2023-05-20T02:02:44.845Z,43.34
2023-05-20T02:05:13.057Z,43.58
2023-05-20T02:07:43.190Z,43.51
2023-05-20T02:10:10.918Z,43.70
2023-05-20T02:12:38.606Z,43.85
2023-05-20T02:15:06.818Z,43.73
2023-05-20T02:17:33.923Z,43.51
2023-05-20T02:20:01.692Z,43.78
2023-05-20T02:22:28.736Z,43.75
2023-05-20T02:24:55.734Z,44.37
2023-05-20T02:27:22.750Z,44.75
2023-05-20T02:29:49.735Z,43.86
2023-05-20T02:32:20.592Z,44.41
2023-05-20T02:34:47.573Z,44.01
2023-05-20T02:37:14.889Z,44.48
2023-05-20T02:39:41.893Z,44.68
2023-05-20T02:42:09.008Z,45.28
2023-05-20T02:44:36.225Z,43.92
2023-05-20T02:47:03.279Z,44.06
2023-05-20T02:49:30.452Z,44.48
2023-05-20T02:51:57.494Z,44.74
2023-05-20T02:54:24.504Z,45.22
2023-05-20T02:56:51.710Z,45.05
2023-05-20T02:59:18.728Z,44.47
2023-05-20T03:01:46.042Z,45.24
2023-05-20T03:04:13.150Z,44.61
2023-05-20T03:06:44.289Z,44.63
2023-05-20T03:09:11.440Z,44.39
2023-05-20T03:11:38.520Z,44.65
2023-05-20T03:14:05.653Z,46.10
2023-05-20T03:16:35.336Z,44.81
2023-05-20T03:19:02.886Z,44.54
2023-05-20T03:21:30.306Z,45.65
2023-05-20T03:23:57.859Z,45.04
2023-05-20T03:26:25.604Z,45.65
2023-05-20T03:28:53.672Z,45.06
2023-05-20T03:31:21.073Z,45.16
2023-05-20T03:33:48.207Z,45.68
2023-05-20T03:36:15.479Z,45.26
2023-05-20T03:38:42.582Z,45.31
2023-05-20T03:41:09.731Z,45.17
2023-05-20T03:43:36.759Z,45.22
2023-05-20T03:46:03.735Z,45.98
2023-05-20T03:48:30.743Z,45.05
2023-05-20T03:50:57.789Z,45.59
2023-05-20T03:53:24.830Z,44.99
2023-05-20T03:55:52.116Z,45.06
2023-05-20T03:58:20.914Z,45.45
2023-05-20T04:00:48.997Z,45.07
2023-05-20T04:03:16.152Z,44.82
2023-05-20T04:05:43.273Z,45.39
2023-05-20T04:08:18.768Z,45.08
2023-05-20T04:10:46.361Z,45.01
2023-05-20T04:13:14.081Z,45.63
2023-05-20T04:15:41.901Z,46.56
2023-05-20T04:18:10.306Z,45.69
2023-05-20T04:20:37.417Z,45.31
2023-05-20T04:23:04.472Z,45.56
2023-05-20T04:25:31.484Z,45.93
2023-05-20T04:28:00.480Z,45.69
2023-05-20T04:30:27.521Z,45.51
2023-05-20T04:32:54.764Z,45.69
2023-05-20T04:35:25.824Z,45.70
2023-05-20T04:37:55.303Z,45.98
2023-05-20T04:40:23.291Z,46.19
2023-05-20T04:42:50.994Z,47.45
2023-05-20T04:45:18.344Z,46.60
2023-05-20T04:47:45.926Z,46.20
2023-05-20T04:50:14.662Z,46.17
2023-05-20T04:52:43.209Z,46.02
2023-05-20T04:55:12.106Z,47.19
2023-05-20T04:57:43.444Z,45.62
2023-05-20T05:00:13.136Z,47.71
2023-05-20T05:02:41.040Z,46.40
2023-05-20T05:05:08.837Z,46.48
2023-05-20T05:07:36.254Z,46.95
2023-05-20T05:10:03.453Z,46.16
2023-05-20T05:12:33.679Z,46.57
2023-05-20T05:15:01.023Z,46.55
2023-05-20T05:17:29.447Z,46.79
2023-05-20T05:19:58.091Z,46.31
2023-05-20T05:22:26.983Z,46.05
2023-05-20T05:24:55.652Z,46.69
2023-05-20T05:27:23.052Z,47.54
2023-05-20T05:29:50.342Z,46.42
2023-05-20T05:32:17.741Z,46.47
2023-05-20T05:34:45.217Z,48.44
2023-05-20T05:37:12.670Z,47.14
2023-05-20T05:39:39.730Z,46.70
2023-05-20T05:42:06.805Z,47.63
2023-05-20T05:44:34.926Z,47.23
2023-05-20T05:47:03.314Z,47.31
2023-05-20T05:49:30.407Z,47.19
2023-05-20T05:51:57.468Z,47.20
2023-05-20T05:54:25.280Z,48.05
2023-05-20T05:56:53.498Z,47.64
2023-05-20T05:59:21.339Z,47.29
2023-05-20T06:01:48.967Z,47.34
2023-05-20T06:04:16.346Z,47.15
2023-05-20T06:06:43.499Z,47.08
2023-05-20T06:09:10.532Z,47.34
2023-05-20T06:11:39.497Z,48.51
2023-05-20T06:14:06.511Z,48.70
2023-05-20T06:16:33.717Z,47.53
2023-05-20T06:19:03.417Z,49.24
2023-05-20T06:21:32.831Z,48.05
2023-05-20T06:24:00.251Z,48.80
2023-05-20T06:26:27.522Z,47.68
2023-05-20T06:28:55.339Z,48.16
2023-05-20T06:31:22.852Z,48.07
2023-05-20T06:33:51.882Z,47.89
2023-05-20T06:36:19.001Z,48.37
2023-05-20T06:38:47.133Z,48.39
2023-05-20T06:41:15.797Z,49.67
2023-05-20T06:43:42.801Z,48.39
2023-05-20T06:46:30.131Z,48.33
2023-05-20T06:49:04.192Z,48.44
2023-05-20T06:51:31.386Z,48.65
2023-05-20T06:53:59.977Z,48.00
2023-05-20T06:56:27.234Z,47.93
2023-05-20T06:58:55.730Z,48.72
2023-05-20T07:01:22.950Z,48.07
2023-05-20T07:03:50.449Z,49.19
2023-05-20T07:06:17.983Z,48.32
2023-05-20T07:08:45.119Z,48.18
2023-05-20T07:11:12.620Z,47.85
2023-05-20T07:13:39.660Z,47.89
2023-05-20T07:16:06.998Z,47.77
2023-05-20T07:18:36.372Z,47.76
2023-05-20T07:21:03.554Z,47.48
2023-05-20T07:23:50.962Z,47.37
2023-05-20T07:26:18.308Z,47.51
2023-05-20T07:28:47.092Z,47.43
2023-05-20T07:31:14.364Z,47.26
2023-05-20T07:33:43.822Z,47.09
2023-05-20T07:36:11.530Z,47.18
2023-05-20T07:38:42.939Z,47.30
2023-05-20T07:41:14.388Z,47.00
2023-05-20T07:43:41.462Z,47.42
2023-05-20T07:46:09.106Z,46.93
2023-05-20T07:48:36.319Z,47.24
2023-05-20T07:51:03.444Z,47.23
2023-05-20T07:53:30.651Z,47.23
2023-05-20T07:55:58.551Z,46.91
2023-05-20T07:58:28.769Z,47.14
2023-05-20T08:00:56.506Z,47.22
2023-05-20T08:03:24.098Z,46.91
2023-05-20T08:06:00.511Z,46.63
2023-05-20T08:08:30.461Z,47.16
2023-05-20T08:11:04.088Z,46.97
2023-05-20T08:13:32.211Z,47.02
2023-05-20T08:16:01.182Z,47.11
2023-05-20T08:18:28.985Z,46.98
2023-05-20T08:20:55.992Z,46.82
2023-05-20T08:23:23.052Z,46.70
2023-05-20T08:25:50.219Z,46.28
2023-05-20T08:28:19.048Z,46.62
2023-05-20T08:30:47.943Z,46.64
2023-05-20T08:33:15.809Z,46.61
2023-05-20T08:35:42.896Z,46.29
2023-05-20T08:38:10.044Z,46.45
2023-05-20T08:40:37.200Z,46.56
2023-05-20T08:43:04.919Z,46.04
2023-05-20T08:45:34.359Z,46.45
2023-05-20T08:48:06.606Z,46.27
2023-05-20T08:50:34.018Z,46.48
2023-05-20T08:53:01.283Z,46.42
2023-05-20T08:55:47.225Z,46.31
2023-05-20T08:58:16.266Z,46.20
2023-05-20T09:00:43.366Z,46.10
2023-05-20T09:03:10.397Z,46.21
2023-05-20T09:05:37.559Z,45.95
2023-05-20T09:08:07.058Z,45.69
2023-05-20T09:10:36.522Z,45.85
2023-05-20T09:13:06.162Z,45.62
2023-05-20T09:15:35.040Z,45.83
2023-05-20T09:18:04.559Z,45.86
2023-05-20T09:20:35.301Z,45.96
2023-05-20T09:23:04.954Z,45.73
2023-05-20T09:25:32.873Z,45.33
2023-05-20T09:28:00.208Z,44.96
2023-05-20T09:30:27.316Z,45.14
2023-05-20T09:32:59.888Z,44.92
2023-05-20T09:35:28.282Z,44.99
2023-05-20T09:37:57.687Z,44.86
2023-05-20T09:40:27.929Z,44.81
2023-05-20T09:43:04.464Z,44.74
2023-05-20T09:45:31.662Z,44.66
2023-05-20T09:48:01.967Z,44.88
2023-05-20T09:50:30.435Z,44.71
2023-05-20T09:53:01.764Z,45.03
2023-05-20T09:55:29.587Z,44.87
2023-05-20T09:57:56.690Z,45.04
2023-05-20T10:00:23.671Z,45.21
2023-05-20T10:02:52.695Z,45.57
2023-05-20T10:05:24.025Z,45.78
2023-05-20T10:08:42.677Z,45.78
2023-05-20T10:11:25.859Z,46.02
2023-05-20T10:14:14.516Z,45.85
2023-05-20T10:17:12.173Z,45.28
2023-05-20T10:19:39.759Z,45.16
2023-05-20T10:22:11.956Z,44.76
2023-05-20T10:24:41.753Z,44.30
2023-05-20T10:27:11.490Z,44.56
2023-05-20T10:29:57.425Z,45.21
2023-05-20T10:32:33.024Z,45.59
2023-05-20T10:35:04.968Z,44.75
2023-05-20T10:37:41.891Z,44.66
2023-05-20T10:40:14.254Z,43.45
2023-05-20T10:42:42.751Z,43.89
2023-05-20T10:45:10.644Z,44.49
2023-05-20T10:47:42.828Z,44.72
2023-05-20T10:50:33.800Z,45.42
2023-05-20T10:53:15.942Z,42.75
2023-05-20T10:55:51.857Z,44.01
2023-05-20T10:58:22.052Z,43.37
2023-05-20T11:00:51.065Z,43.49
2023-05-20T11:05:48.714Z,40.96
2023-05-20T11:08:27.731Z,41.66
2023-05-20T11:10:59.659Z,41.29
2023-05-20T11:13:27.322Z,41.39
2023-05-20T11:15:55.368Z,40.55
2023-05-20T11:18:22.360Z,39.70
2023-05-20T11:20:49.482Z,40.02
2023-05-20T11:23:16.704Z,39.26
2023-05-20T11:25:43.742Z,38.84
2023-05-20T11:28:14.718Z,40.05
2023-05-20T11:30:43.464Z,39.30
2023-05-20T11:33:13.691Z,39.38
2023-05-20T11:35:52.778Z,38.40
2023-05-20T11:38:21.864Z,38.70
2023-05-20T11:40:54.636Z,38.10
2023-05-20T11:43:24.233Z,38.49
2023-05-20T11:46:00.791Z,39.31
2023-05-20T11:48:28.127Z,39.31
2023-05-20T11:50:56.944Z,39.87
2023-05-20T11:53:25.229Z,38.81
2023-05-20T11:56:00.178Z,39.25
2023-05-20T11:58:31.305Z,38.41
2023-05-20T12:01:05.751Z,37.98
2023-05-20T12:03:40.945Z,38.04
2023-05-20T12:06:08.286Z,37.39
2023-05-20T12:08:35.340Z,36.85
2023-05-20T12:11:02.336Z,36.66
2023-05-20T12:13:29.316Z,37.38
2023-05-20T12:15:56.490Z,37.54
2023-05-20T12:18:23.557Z,37.33
2023-05-20T12:20:50.927Z,36.73
2023-05-20T12:23:17.996Z,37.12
2023-05-20T12:25:47.207Z,37.28
2023-05-20T12:28:14.659Z,37.01
2023-05-20T12:30:41.935Z,37.76
2023-05-20T12:33:09.303Z,36.39
2023-05-20T12:35:41.654Z,35.83
2023-05-20T12:38:09.239Z,36.37
2023-05-20T12:40:37.091Z,35.74
2023-05-20T12:43:05.836Z,35.57
2023-05-20T12:45:32.873Z,35.27
2023-05-20T12:48:00.310Z,36.39
2023-05-20T12:50:27.933Z,35.17
2023-05-20T12:52:54.956Z,35.26
2023-05-20T12:55:22.096Z,36.67
2023-05-20T12:57:49.760Z,34.80
2023-05-20T13:00:17.395Z,35.36
2023-05-20T13:02:44.552Z,35.18
2023-05-20T13:05:12.261Z,33.76
2023-05-20T13:07:39.662Z,33.66
2023-05-20T13:10:08.201Z,33.12
2023-05-20T13:12:35.413Z,32.09
2023-05-20T13:15:03.136Z,32.60
2023-05-20T13:17:30.870Z,32.25
2023-05-20T13:19:58.294Z,32.03
2023-05-20T13:22:25.339Z,32.00
2023-05-20T13:24:52.336Z,32.85
2023-05-20T13:27:19.335Z,33.62
2023-05-20T13:29:46.434Z,33.31
2023-05-20T13:32:13.598Z,33.35
2023-05-20T13:34:40.649Z,33.25
2023-05-20T13:37:07.884Z,32.20
2023-05-20T13:39:35.205Z,33.06
2023-05-20T13:42:02.737Z,33.33
2023-05-20T13:44:30.651Z,33.91
2023-05-20T13:46:58.971Z,33.59
2023-05-20T13:49:26.049Z,33.49
2023-05-20T13:51:53.060Z,33.75
2023-05-20T13:54:21.546Z,33.91
2023-05-20T13:56:48.710Z,34.00
2023-05-20T13:59:15.806Z,34.60
2023-05-20T14:01:45.126Z,34.50
2023-05-20T14:04:12.919Z,34.47
2023-05-20T14:06:40.449Z,35.03
2023-05-20T14:09:09.106Z,35.21
2023-05-20T14:11:36.908Z,35.30
2023-05-20T14:14:04.028Z,35.02
2023-05-20T14:16:31.806Z,35.20
2023-05-20T14:18:59.248Z,35.55
2023-05-20T14:21:26.527Z,35.43
2023-05-20T14:23:53.633Z,35.29
2023-05-20T14:26:21.685Z,35.40
2023-05-20T14:28:49.094Z,35.36
2023-05-20T14:31:16.412Z,35.11
2023-05-20T14:33:43.610Z,35.20
2023-05-20T14:36:11.108Z,35.58
2023-05-20T14:38:38.301Z,35.23
2023-05-20T14:41:05.369Z,35.45
2023-05-20T14:43:32.521Z,35.71
2023-05-20T14:45:59.909Z,36.09
2023-05-20T14:48:26.900Z,36.22
2023-05-20T14:50:54.004Z,36.52
2023-05-20T14:53:21.191Z,35.95
2023-05-20T14:55:48.230Z,35.68
2023-05-20T14:58:15.420Z,34.74
2023-05-20T15:00:42.723Z,36.07
2023-05-20T15:03:09.947Z,35.73
2023-05-20T15:05:37.695Z,36.34
2023-05-20T15:08:05.103Z,35.78
2023-05-20T15:10:32.181Z,35.61
2023-05-20T15:12:59.237Z,35.58
2023-05-20T15:15:26.339Z,34.88
2023-05-20T15:17:53.420Z,35.14
2023-05-20T15:20:20.410Z,35.15
2023-05-20T15:22:48.216Z,35.04
2023-05-20T15:25:15.489Z,35.27
2023-05-20T15:27:42.804Z,35.91
2023-05-20T15:30:10.770Z,35.47
2023-05-20T15:32:37.941Z,35.89
2023-05-20T15:35:06.423Z,34.93
2023-05-20T15:37:33.455Z,34.82
2023-05-20T15:40:00.727Z,34.69
2023-05-20T15:42:27.715Z,34.44
2023-05-20T15:44:54.741Z,34.32
2023-05-20T15:47:21.813Z,34.38
2023-05-20T15:49:48.828Z,34.86
2023-05-20T15:52:16.119Z,35.06
2023-05-20T15:54:43.207Z,35.36
2023-05-20T15:57:10.235Z,34.98
2023-05-20T15:59:37.255Z,34.09
2023-05-20T16:02:04.328Z,34.89
2023-05-20T16:04:32.384Z,34.11
2023-05-20T16:06:59.658Z,35.05
2023-05-20T16:09:26.724Z,34.70
2023-05-20T16:11:53.817Z,34.62
2023-05-20T16:14:21.048Z,34.66
2023-05-20T16:16:48.229Z,34.29
2023-05-20T16:19:15.453Z,34.13
2023-05-20T16:21:42.454Z,34.13
2023-05-20T16:24:09.468Z,34.32
2023-05-20T16:26:36.622Z,34.44
2023-05-20T16:29:03.834Z,34.31
2023-05-20T16:31:30.908Z,34.83
2023-05-20T16:33:58.096Z,34.58
2023-05-20T16:36:25.792Z,34.70
2023-05-20T16:38:52.857Z,35.23
2023-05-20T16:41:19.822Z,35.24
2023-05-20T16:43:46.854Z,35.11
2023-05-20T16:46:14.512Z,35.28
2023-05-20T16:48:42.551Z,35.25
2023-05-20T16:51:09.597Z,35.12
2023-05-20T16:53:37.398Z,35.34
2023-05-20T16:56:06.655Z,35.68
2023-05-20T16:58:33.704Z,35.61
2023-05-20T17:01:01.892Z,35.72
2023-05-20T17:03:29.037Z,35.74
2023-05-20T17:05:56.132Z,35.40
2023-05-20T17:08:23.250Z,35.75
2023-05-20T17:10:53.269Z,36.01
2023-05-20T17:13:21.435Z,36.13
2023-05-20T17:15:48.614Z,36.11
2023-05-20T17:18:16.712Z,36.11
2023-05-20T17:20:43.812Z,36.25
2023-05-20T17:23:10.993Z,36.39
2023-05-20T17:25:37.973Z,36.29
2023-05-20T17:28:05.396Z,36.39
2023-05-20T17:30:32.672Z,36.21
2023-05-20T17:33:00.022Z,36.57
2023-05-20T17:35:27.928Z,36.62
2023-05-20T17:37:55.129Z,36.61
2023-05-20T17:40:22.466Z,36.78
2023-05-20T17:42:51.724Z,36.68
2023-05-20T17:45:18.854Z,36.95
2023-05-20T17:47:45.992Z,36.79
2023-05-20T17:50:14.730Z,37.04
2023-05-20T17:52:41.886Z,36.78
2023-05-20T17:55:09.674Z,37.11
2023-05-20T17:57:36.873Z,37.20
2023-05-20T18:00:05.574Z,36.90
2023-05-20T18:02:33.332Z,37.13
2023-05-20T18:05:00.470Z,37.25
2023-05-20T18:07:27.700Z,37.43
2023-05-20T18:09:55.198Z,37.59
2023-05-20T18:12:22.289Z,37.64
2023-05-20T18:14:49.395Z,37.73
2023-05-20T18:17:16.663Z,37.54
2023-05-20T18:19:43.772Z,37.67
2023-05-20T18:22:10.902Z,37.70
2023-05-20T18:24:38.003Z,37.78
2023-05-20T18:27:05.561Z,38.23
2023-05-20T18:29:32.780Z,37.93
2023-05-20T18:32:00.003Z,37.99
2023-05-20T18:34:27.140Z,38.09
2023-05-20T18:36:54.168Z,38.16
2023-05-20T18:39:21.540Z,38.30
2023-05-20T18:41:48.559Z,38.04
2023-05-20T18:44:17.998Z,38.36
2023-05-20T18:46:45.524Z,38.40
2023-05-20T18:49:13.024Z,38.66
2023-05-20T18:51:40.946Z,38.39
2023-05-20T18:54:08.319Z,38.63
2023-05-20T18:56:35.679Z,38.53
2023-05-20T18:59:02.820Z,39.29
2023-05-20T19:01:29.924Z,38.61
2023-05-20T19:03:57.001Z,39.10
2023-05-20T19:06:24.343Z,38.73
2023-05-20T19:08:51.448Z,39.15
2023-05-20T19:11:18.615Z,39.37
2023-05-20T19:13:45.815Z,39.56
2023-05-20T19:16:12.932Z,39.65
2023-05-20T19:18:42.438Z,39.53
2023-05-20T19:21:09.531Z,39.73
2023-05-20T19:23:36.553Z,40.15
2023-05-20T19:26:03.664Z,40.03
2023-05-20T19:28:30.881Z,39.88
2023-05-20T19:30:57.920Z,40.02
2023-05-20T19:33:24.988Z,40.27
2023-05-20T19:35:51.975Z,39.74
2023-05-20T19:38:19.108Z,40.07
2023-05-20T19:40:46.993Z,39.91
2023-05-20T19:43:14.159Z,39.74
2023-05-20T19:45:41.206Z,40.68
2023-05-20T19:48:09.051Z,40.25
2023-05-20T19:50:36.350Z,40.09
2023-05-20T19:53:06.332Z,40.29
2023-05-20T19:55:38.612Z,40.00
2023-05-20T19:58:05.956Z,40.46
2023-05-20T20:00:32.993Z,40.52
2023-05-20T20:03:00.141Z,40.79
2023-05-20T20:05:27.358Z,40.64
2023-05-20T20:07:54.458Z,40.99
2023-05-20T20:10:21.645Z,41.27
2023-05-20T20:12:49.011Z,41.02
2023-05-20T20:15:16.749Z,41.36
2023-05-20T20:17:45.537Z,41.63
2023-05-20T20:20:16.008Z,40.77
2023-05-20T20:22:43.029Z,41.24
2023-05-20T20:25:13.724Z,41.76
2023-05-20T20:27:43.868Z,41.84
2023-05-20T20:30:15.050Z,41.04
2023-05-20T20:32:42.583Z,41.80
2023-05-20T20:35:10.742Z,41.58
2023-05-20T20:37:38.350Z,41.87
2023-05-20T20:40:08.151Z,41.90
2023-05-20T20:42:35.224Z,42.01
2023-05-20T20:45:04.230Z,42.18
2023-05-20T20:47:31.329Z,42.20
2023-05-20T20:49:58.441Z,41.78
2023-05-20T20:52:25.426Z,42.16
2023-05-20T20:54:53.103Z,42.21
2023-05-20T20:57:21.900Z,42.30
2023-05-20T20:59:50.839Z,41.92
2023-05-20T21:02:19.064Z,42.54
2023-05-20T21:04:47.329Z,43.33
2023-05-20T21:07:17.931Z,42.36
2023-05-20T21:09:45.725Z,40.45
2023-05-20T21:12:12.972Z,42.50
2023-05-20T21:14:39.999Z,42.36
2023-05-20T21:17:07.077Z,42.93
2023-05-20T21:19:34.664Z,43.00
2023-05-20T21:22:01.754Z,42.55
2023-05-20T21:24:28.777Z,43.51
2023-05-20T21:26:55.968Z,42.73
2023-05-20T21:29:22.936Z,43.04
2023-05-20T21:31:50.196Z,43.40
2023-05-20T21:34:17.222Z,43.23
2023-05-20T21:36:44.203Z,42.76
2023-05-20T21:39:11.238Z,42.72
2023-05-20T21:41:38.252Z,43.37
2023-05-20T21:44:05.390Z,43.36
2023-05-20T21:46:32.457Z,43.30
2023-05-20T21:48:59.529Z,43.69
2023-05-20T21:51:26.507Z,43.30
2023-05-20T21:53:53.533Z,43.82
2023-05-20T21:56:21.580Z,43.49
2023-05-20T21:58:48.918Z,43.96
2023-05-20T22:01:16.085Z,43.92
2023-05-20T22:03:48.736Z,43.94
2023-05-20T22:06:17.567Z,43.91
2023-05-20T22:08:44.798Z,43.69
2023-05-20T22:11:11.834Z,44.05
2023-05-20T22:13:45.031Z,44.01
2023-05-20T22:16:12.226Z,44.42
2023-05-20T22:18:39.617Z,44.30
2023-05-20T22:21:06.628Z,44.18
2023-05-20T22:23:33.638Z,44.27
2023-05-20T22:26:00.897Z,44.55
2023-05-20T22:28:27.908Z,44.45
2023-05-20T22:30:54.906Z,44.10
2023-05-20T22:33:22.831Z,45.04
2023-05-20T22:35:51.292Z,44.71
2023-05-20T22:38:18.437Z,44.92
2023-05-20T22:40:45.990Z,44.77
2023-05-20T22:43:13.881Z,44.51
2023-05-20T22:45:41.050Z,44.59
2023-05-20T22:48:08.363Z,44.79
2023-05-20T22:50:36.087Z,46.04
2023-05-20T22:53:03.216Z,45.29
2023-05-20T22:55:30.341Z,44.83
2023-05-20T22:57:57.713Z,45.13
2023-05-20T23:00:24.715Z,45.08
2023-05-20T23:02:52.257Z,45.31
2023-05-20T23:05:19.550Z,45.56
2023-05-20T23:07:46.598Z,44.93
2023-05-20T23:10:13.617Z,45.50
2023-05-20T23:12:40.605Z,45.51
2023-05-20T23:15:08.867Z,45.78
2023-05-20T23:17:36.419Z,45.39
2023-05-20T23:20:10.760Z,45.30
2023-05-20T23:22:38.474Z,45.67
2023-05-20T23:25:06.072Z,45.76
2023-05-20T23:27:33.336Z,46.25
2023-05-20T23:30:00.483Z,45.90
2023-05-20T23:32:27.620Z,46.18
2023-05-20T23:34:55.079Z,45.32
2023-05-20T23:37:22.407Z,45.61
2023-05-20T23:39:49.434Z,46.01
2023-05-20T23:42:16.655Z,45.93
2023-05-20T23:44:43.657Z,45.63
2023-05-20T23:47:13.365Z,45.80
2023-05-20T23:49:41.485Z,45.66
2023-05-20T23:52:08.573Z,46.23
2023-05-20T23:54:35.662Z,45.72
2023-05-20T23:57:02.735Z,45.78
2023-05-20T23:59:29.758Z,46.04
